Time;durP1;ratioP1;P1;durP2;ratioP2;P2;SDS_P1;SDS_P2;PMS_P1;PMS_P2;Temp;Humidity;BMP_temperature;BMP_pressure;BME280_temperature;BME280_humidity;BME280_pressure;Samples;Min_cycle;Max_cycle;Signal;HPM_P1;HPM_P2
2024/01/26 00:00:44;;;;;;;41.55;21.88;;;8.50;99.90;;;;;;5090908;28;20052;-63
2024/01/26 00:03:10;;;;;;;42.80;20.85;;;8.40;99.90;;;;;;5089463;28;20040;-63
2024/01/26 00:05:35;;;;;;;41.22;22.63;;;8.50;99.90;;;;;;5090799;28;20048;-63
2024/01/26 00:08:01;;;;;;;39.95;20.90;;;8.50;99.90;;;;;;5091084;28;20040;-63
2024/01/26 00:10:27;;;;;;;43.55;21.13;;;8.50;99.90;;;;;;5089925;28;20123;-64
2024/01/26 00:12:52;;;;;;;42.38;22.38;;;8.40;99.90;;;;;;5091989;28;20043;-63
2024/01/26 00:15:18;;;;;;;46.05;22.90;;;8.50;99.90;;;;;;5073921;28;20488;-63
2024/01/26 00:17:44;;;;;;;45.95;23.33;;;8.40;99.90;;;;;;5089410;28;20063;-63
2024/01/26 00:20:09;;;;;;;44.97;24.13;;;8.50;99.90;;;;;;5090469;28;20039;-63
2024/01/26 00:22:35;;;;;;;45.38;22.40;;;8.40;99.90;;;;;;5107690;28;20044;-63
2024/01/26 00:25:01;;;;;;;40.33;20.98;;;8.40;99.90;;;;;;5107329;28;20048;-63
2024/01/26 00:27:26;;;;;;;36.40;20.75;;;8.40;99.90;;;;;;5107391;28;20039;-63
2024/01/26 00:29:52;;;;;;;47.80;23.27;;;8.40;99.90;;;;;;5073690;28;20040;-63
2024/01/26 00:32:18;;;;;;;41.53;21.50;;;8.40;99.90;;;;;;5090655;28;20478;-63
2024/01/26 00:34:43;;;;;;;37.38;18.77;;;8.40;99.90;;;;;;5091616;28;20537;-63
2024/01/26 00:37:09;;;;;;;31.40;17.02;;;8.40;99.90;;;;;;5089400;28;20035;-63
2024/01/26 00:39:35;;;;;;;35.60;20.33;;;8.50;99.90;;;;;;5091588;28;20042;-63
2024/01/26 00:42:01;;;;;;;30.52;15.77;;;8.50;99.90;;;;;;5090872;28;20043;-63
2024/01/26 00:44:26;;;;;;;28.83;17.08;;;8.50;99.90;;;;;;5089809;28;20119;-63
2024/01/26 00:46:52;;;;;;;26.40;15.32;;;8.50;99.90;;;;;;5090178;28;20036;-63
2024/01/26 00:49:18;;;;;;;25.83;15.73;;;8.50;99.90;;;;;;5090484;28;20083;-63
2024/01/26 00:51:44;;;;;;;24.80;14.20;;;8.50;99.90;;;;;;5072887;28;20036;-63
2024/01/26 00:54:10;;;;;;;23.00;13.65;;;8.50;99.90;;;;;;5090664;28;20105;-63
2024/01/26 00:56:36;;;;;;;22.13;13.18;;;8.50;99.90;;;;;;5091368;28;20030;-63
2024/01/26 00:59:01;;;;;;;25.00;12.73;;;8.60;99.90;;;;;;5106647;28;20364;-63
2024/01/26 01:01:27;;;;;;;22.80;12.65;;;8.60;99.90;;;;;;5091496;28;20036;-63
2024/01/26 01:03:53;;;;;;;22.20;12.35;;;8.60;99.90;;;;;;5107353;28;20047;-63
2024/01/26 01:06:19;;;;;;;23.10;12.52;;;8.80;99.90;;;;;;5090708;28;20047;-63
2024/01/26 01:08:45;;;;;;;21.73;11.95;;;8.80;99.90;;;;;;5090846;28;20038;-63
2024/01/26 01:11:11;;;;;;;23.60;12.32;;;8.60;99.90;;;;;;5090374;28;20074;-63
2024/01/26 01:13:36;;;;;;;23.05;12.57;;;8.80;99.90;;;;;;5091504;28;20067;-63
2024/01/26 01:16:02;;;;;;;23.20;12.75;;;8.70;99.90;;;;;;5095795;28;20040;-63
2024/01/26 01:18:28;;;;;;;21.00;10.95;;;8.80;99.90;;;;;;5093753;28;20044;-63
2024/01/26 01:20:54;;;;;;;21.50;10.55;;;8.80;99.90;;;;;;5110082;28;20071;-63
2024/01/26 01:23:20;;;;;;;19.20;11.23;;;8.90;99.90;;;;;;5076920;28;20044;-63
2024/01/26 01:25:46;;;;;;;21.50;10.55;;;8.70;99.90;;;;;;5110888;28;20046;-63
2024/01/26 01:28:11;;;;;;;23.45;12.55;;;8.80;99.90;;;;;;5094029;28;20052;-63
2024/01/26 01:30:37;;;;;;;18.05;10.32;;;8.80;99.90;;;;;;5093768;28;20392;-63
2024/01/26 01:33:03;;;;;;;20.70;11.98;;;8.80;99.90;;;;;;5093951;28;20044;-63
2024/01/26 01:35:28;;;;;;;20.33;10.52;;;8.80;99.90;;;;;;5092561;28;20047;-63
2024/01/26 01:37:54;;;;;;;17.80;10.13;;;8.80;99.90;;;;;;5110410;28;20373;-63
2024/01/26 01:40:20;;;;;;;17.77;9.93;;;8.80;99.90;;;;;;5092873;28;20039;-63
2024/01/26 01:42:46;;;;;;;20.27;10.25;;;8.80;99.90;;;;;;5093624;28;20044;-63
2024/01/26 01:45:14;;;;;;;23.73;10.82;;;8.80;99.90;;;;;;5110775;28;20031;-63
2024/01/26 01:47:41;;;;;;;15.60;8.98;;;8.80;99.90;;;;;;5092257;28;20118;-63
2024/01/26 01:50:08;;;;;;;18.75;10.60;;;8.90;99.90;;;;;;5093468;28;20051;-63
2024/01/26 01:52:37;;;;;;;14.15;9.13;;;8.80;99.90;;;;;;5093677;28;20114;-63
2024/01/26 01:55:03;;;;;;;16.30;9.48;;;8.80;99.90;;;;;;5092643;28;20044;-63
2024/01/26 01:57:31;;;;;;;18.38;9.93;;;8.80;99.90;;;;;;5093054;28;20072;-63
2024/01/26 01:59:57;;;;;;;17.10;9.52;;;8.80;99.90;;;;;;5093200;28;20087;-63
2024/01/26 02:02:24;;;;;;;17.25;10.77;;;8.80;99.90;;;;;;5092298;28;20106;-63
2024/01/26 02:04:52;;;;;;;16.92;10.32;;;8.90;99.90;;;;;;5092855;28;20043;-63
2024/01/26 02:07:18;;;;;;;19.52;11.15;;;8.90;99.90;;;;;;5075798;28;20414;-62
2024/01/26 02:09:44;;;;;;;19.85;10.93;;;8.80;99.90;;;;;;5092017;28;20048;-63
2024/01/26 02:12:11;;;;;;;18.73;10.75;;;8.80;99.90;;;;;;5092890;28;20048;-63
2024/01/26 02:14:36;;;;;;;17.88;10.93;;;8.90;99.90;;;;;;5075908;28;20086;-63
2024/01/26 02:17:02;;;;;;;18.38;11.43;;;8.90;99.90;;;;;;5091929;28;20040;-63
2024/01/26 02:19:31;;;;;;;17.88;10.80;;;8.90;99.90;;;;;;5092322;28;20079;-63
2024/01/26 02:21:57;;;;;;;19.10;11.50;;;8.90;99.90;;;;;;5072819;28;20051;-63
2024/01/26 02:24:23;;;;;;;20.85;12.38;;;8.90;99.90;;;;;;5072145;28;20040;-63
2024/01/26 02:26:49;;;;;;;19.42;11.73;;;8.80;99.90;;;;;;5073104;28;20127;-62
2024/01/26 02:29:14;;;;;;;18.58;12.13;;;8.90;99.90;;;;;;5093707;28;20120;-63
2024/01/26 02:31:40;;;;;;;21.38;12.32;;;8.90;99.90;;;;;;5091539;28;20071;-63
2024/01/26 02:34:12;;;;;;;24.10;12.55;;;8.90;99.90;;;;;;5075802;28;20040;-63
2024/01/26 02:36:38;;;;;;;22.67;13.38;;;8.90;99.90;;;;;;5092935;28;20046;-63
2024/01/26 02:39:05;;;;;;;23.45;14.10;;;8.90;99.90;;;;;;5092431;28;20043;-63
2024/01/26 02:41:32;;;;;;;23.00;13.82;;;9.00;99.90;;;;;;5091969;28;20615;-63
2024/01/26 02:43:57;;;;;;;21.63;13.77;;;8.90;99.90;;;;;;5091816;28;20393;-62
2024/01/26 02:46:23;;;;;;;24.60;14.70;;;9.00;99.90;;;;;;5092226;28;20040;-63
2024/01/26 02:48:49;;;;;;;23.67;13.80;;;9.00;99.90;;;;;;5108641;28;20047;-62
2024/01/26 02:51:15;;;;;;;22.23;14.02;;;9.10;99.90;;;;;;5108727;28;20125;-63
2024/01/26 02:53:40;;;;;;;24.27;14.05;;;9.20;99.90;;;;;;5092128;28;20051;-63
2024/01/26 02:56:09;;;;;;;22.40;13.73;;;9.20;99.90;;;;;;5109425;28;20119;-63
2024/01/26 02:58:36;;;;;;;22.27;14.20;;;9.20;99.90;;;;;;5092304;28;20190;-63
2024/01/26 03:01:02;;;;;;;23.40;13.70;;;9.20;99.90;;;;;;5071952;28;20162;-63
2024/01/26 03:03:28;;;;;;;23.83;13.60;;;9.20;99.90;;;;;;5071907;28;20075;-63
2024/01/26 03:05:54;;;;;;;25.40;14.27;;;9.20;99.90;;;;;;5071126;28;20052;-63
2024/01/26 03:08:19;;;;;;;22.95;14.30;;;9.30;99.90;;;;;;5081187;28;20044;-63
2024/01/26 03:10:45;;;;;;;20.27;13.13;;;9.30;99.90;;;;;;5091727;28;20083;-63
2024/01/26 03:13:11;;;;;;;24.45;13.88;;;9.30;99.90;;;;;;5108246;28;20051;-62
2024/01/26 03:15:36;;;;;;;24.08;14.73;;;9.40;99.90;;;;;;5108654;28;20496;-63
2024/01/26 03:18:02;;;;;;;24.13;14.32;;;9.30;99.90;;;;;;5108623;28;20125;-63
2024/01/26 03:20:30;;;;;;;22.17;13.20;;;9.30;99.90;;;;;;5090871;28;20080;-63
2024/01/26 03:22:55;;;;;;;24.05;14.90;;;9.30;99.90;;;;;;5074744;28;20131;-62
2024/01/26 03:25:21;;;;;;;29.35;16.42;;;9.40;99.90;;;;;;5092815;28;20072;-63
2024/01/26 03:27:47;;;;;;;25.25;14.85;;;9.30;99.90;;;;;;5091302;28;20461;-63
2024/01/26 03:30:12;;;;;;;25.83;15.93;;;9.30;99.90;;;;;;5091622;28;20040;-63
2024/01/26 03:32:38;;;;;;;25.77;14.80;;;9.40;99.90;;;;;;5091467;28;20378;-63
2024/01/26 03:35:05;;;;;;;27.67;14.90;;;9.40;99.90;;;;;;5090882;28;20040;-62
2024/01/26 03:37:30;;;;;;;26.90;16.13;;;9.40;99.90;;;;;;5090907;28;20105;-63
2024/01/26 03:39:56;;;;;;;25.63;17.00;;;9.30;99.90;;;;;;5107764;28;20040;-62
2024/01/26 03:42:22;;;;;;;23.52;14.45;;;9.40;99.90;;;;;;5108119;28;20043;-63
2024/01/26 03:44:47;;;;;;;26.23;15.90;;;9.40;99.90;;;;;;5092414;28;20036;-62
2024/01/26 03:47:13;;;;;;;24.70;14.82;;;9.40;99.90;;;;;;5090562;28;20048;-62
2024/01/26 03:49:45;;;;;;;31.95;16.42;;;9.40;99.90;;;;;;5090726;28;20469;-63
2024/01/26 03:52:12;;;;;;;27.90;16.23;;;9.50;99.90;;;;;;5090967;28;20058;-63
2024/01/26 03:54:37;;;;;;;27.90;16.17;;;9.50;99.90;;;;;;5090025;28;20092;-63
2024/01/26 03:57:05;;;;;;;31.05;17.02;;;9.50;99.90;;;;;;5091221;28;20032;-63
2024/01/26 03:59:31;;;;;;;31.90;16.63;;;9.50;99.90;;;;;;5073177;28;20060;-63
2024/01/26 04:01:56;;;;;;;34.38;17.75;;;9.40;99.90;;;;;;5090498;28;20059;-63
2024/01/26 04:04:22;;;;;;;35.35;17.80;;;9.60;99.90;;;;;;5092206;28;20032;-63
2024/01/26 04:06:48;;;;;;;32.70;17.80;;;9.60;99.90;;;;;;5090850;28;20128;-63
2024/01/26 04:09:14;;;;;;;30.50;17.17;;;9.60;99.90;;;;;;5089569;28;20120;-63
2024/01/26 04:11:39;;;;;;;33.33;18.48;;;9.60;99.90;;;;;;5090903;28;20036;-62
2024/01/26 04:14:05;;;;;;;30.05;17.38;;;9.60;99.90;;;;;;5090989;28;20051;-63
2024/01/26 04:16:31;;;;;;;31.00;17.45;;;9.60;99.90;;;;;;5089874;28;20062;-63
2024/01/26 04:18:57;;;;;;;29.00;17.17;;;9.60;99.90;;;;;;5090668;28;20409;-63
2024/01/26 04:21:23;;;;;;;32.83;16.48;;;9.70;99.90;;;;;;5090551;28;20044;-62
2024/01/26 04:23:48;;;;;;;29.83;17.42;;;9.70;99.90;;;;;;5089829;28;20393;-63
2024/01/26 04:26:15;;;;;;;29.38;16.90;;;9.70;99.90;;;;;;5091899;28;20039;-63
2024/01/26 04:28:41;;;;;;;27.67;16.67;;;9.70;99.90;;;;;;5090300;28;20550;-63
2024/01/26 04:31:07;;;;;;;30.58;17.90;;;9.70;99.90;;;;;;5090206;28;20541;-63
2024/01/26 04:33:33;;;;;;;30.15;17.75;;;9.80;99.90;;;;;;5090430;28;20500;-63
2024/01/26 04:35:59;;;;;;;25.60;14.60;;;9.70;99.90;;;;;;5107952;28;20040;-63
2024/01/26 04:38:25;;;;;;;25.30;15.70;;;9.90;99.90;;;;;;5089408;28;20097;-63
2024/01/26 04:40:51;;;;;;;28.95;15.25;;;9.90;99.90;;;;;;5073911;28;20044;-63
2024/01/26 04:43:17;;;;;;;26.50;14.90;;;9.90;99.90;;;;;;5089932;28;20044;-63
2024/01/26 04:45:43;;;;;;;23.45;14.55;;;9.90;99.90;;;;;;5090401;28;20048;-63
2024/01/26 04:48:09;;;;;;;28.58;15.15;;;10.00;99.90;;;;;;5091730;28;20102;-63
2024/01/26 04:50:34;;;;;;;25.13;14.00;;;10.00;99.90;;;;;;5093741;28;20599;-62
2024/01/26 04:53:00;;;;;;;28.42;15.57;;;9.90;99.90;;;;;;5094745;28;20048;-63
2024/01/26 04:55:26;;;;;;;25.40;15.05;;;9.90;99.90;;;;;;5094580;28;20044;-63
2024/01/26 04:57:52;;;;;;;24.95;15.55;;;9.90;99.90;;;;;;5093210;28;20051;-63
2024/01/26 05:00:18;;;;;;;23.55;14.63;;;10.00;99.90;;;;;;5094239;28;20409;-63
2024/01/26 05:02:44;;;;;;;22.92;13.98;;;10.10;99.90;;;;;;5111320;28;20527;-63
2024/01/26 05:05:11;;;;;;;23.17;12.93;;;10.00;99.90;;;;;;5110642;28;20098;-63
2024/01/26 05:07:38;;;;;;;21.25;13.60;;;10.10;99.90;;;;;;5094042;28;20488;-63
2024/01/26 05:10:05;;;;;;;22.80;14.40;;;10.10;99.90;;;;;;5094141;28;20048;-63
2024/01/26 05:12:31;;;;;;;26.83;15.00;;;10.10;99.90;;;;;;5093199;28;20048;-63
2024/01/26 05:14:56;;;;;;;24.85;14.57;;;10.10;99.90;;;;;;5095686;28;20039;-63
2024/01/26 05:17:22;;;;;;;24.85;15.18;;;10.10;99.90;;;;;;5077401;28;20044;-63
2024/01/26 05:19:48;;;;;;;26.40;14.35;;;10.10;99.90;;;;;;5092395;28;20477;-63
2024/01/26 05:22:14;;;;;;;26.48;15.90;;;10.20;99.90;;;;;;5111279;28;20040;-62
2024/01/26 05:24:39;;;;;;;23.65;15.05;;;10.30;99.90;;;;;;5093853;28;20047;-62
2024/01/26 05:27:05;;;;;;;26.90;15.90;;;10.20;99.90;;;;;;5093458;28;20097;-63
2024/01/26 05:29:31;;;;;;;25.40;14.30;;;10.30;99.90;;;;;;5093150;28;20039;-63
2024/01/26 05:31:57;;;;;;;24.67;13.77;;;10.30;99.90;;;;;;5110792;28;20032;-63
2024/01/26 05:34:23;;;;;;;22.42;12.98;;;10.30;99.90;;;;;;5109784;28;20044;-62
2024/01/26 05:36:48;;;;;;;25.13;14.30;;;10.30;99.90;;;;;;5093476;28;20050;-63
2024/01/26 05:39:14;;;;;;;23.73;12.07;;;10.30;99.90;;;;;;5094841;28;20051;-62
2024/01/26 05:41:40;;;;;;;19.05;11.95;;;10.30;99.90;;;;;;5092547;28;20036;-62
2024/01/26 05:44:06;;;;;;;18.77;11.93;;;10.30;99.90;;;;;;5095167;28;20170;-63
2024/01/26 05:46:32;;;;;;;19.88;12.02;;;10.30;99.90;;;;;;5093461;28;20032;-63
2024/01/26 05:48:58;;;;;;;16.60;11.32;;;10.30;99.90;;;;;;5093704;28;20043;-63
2024/01/26 05:51:24;;;;;;;19.65;13.05;;;10.30;99.90;;;;;;5076102;28;20046;-63
2024/01/26 05:53:52;;;;;;;20.08;11.13;;;10.40;99.90;;;;;;5092659;28;20125;-63
2024/01/26 05:56:18;;;;;;;18.45;12.02;;;10.40;99.90;;;;;;5093249;28;20439;-63
2024/01/26 05:58:44;;;;;;;17.95;11.65;;;10.40;99.90;;;;;;5094177;28;20486;-63
2024/01/26 06:01:09;;;;;;;16.02;10.25;;;10.40;99.90;;;;;;5091291;28;20059;-64
2024/01/26 06:03:36;;;;;;;15.55;10.77;;;10.40;99.90;;;;;;5093145;28;20102;-63
2024/01/26 06:06:03;;;;;;;19.13;12.07;;;10.30;99.90;;;;;;5093259;28;20048;-63
2024/01/26 06:08:29;;;;;;;18.30;11.68;;;10.40;99.90;;;;;;5075347;28;20485;-63
2024/01/26 06:10:56;;;;;;;19.30;12.15;;;10.50;99.90;;;;;;5093047;28;20040;-63
2024/01/26 06:13:22;;;;;;;15.45;10.90;;;10.30;99.90;;;;;;5109944;28;20047;-63
2024/01/26 06:15:50;;;;;;;16.00;11.02;;;10.40;99.90;;;;;;5091965;28;20040;-64
2024/01/26 06:18:15;;;;;;;16.00;10.52;;;10.40;99.90;;;;;;5092908;28;20040;-64
2024/01/26 06:20:41;;;;;;;19.40;11.75;;;10.50;99.90;;;;;;5093810;28;20046;-64
2024/01/26 06:23:07;;;;;;;19.35;12.10;;;10.40;99.90;;;;;;5092190;28;20040;-63
2024/01/26 06:25:32;;;;;;;16.33;11.38;;;10.50;99.90;;;;;;5093874;28;20118;-63
2024/01/26 06:27:58;;;;;;;15.40;10.23;;;10.50;99.90;;;;;;5093040;28;20067;-64
2024/01/26 06:30:24;;;;;;;15.07;9.50;;;10.50;99.90;;;;;;5092911;28;20063;-64
2024/01/26 06:32:51;;;;;;;18.25;10.68;;;10.50;99.90;;;;;;5092035;28;20067;-64
2024/01/26 06:35:17;;;;;;;15.35;9.40;;;10.50;99.90;;;;;;5092393;28;20047;-64
2024/01/26 06:37:43;;;;;;;14.52;9.63;;;10.60;99.90;;;;;;5091853;28;20071;-64
2024/01/26 06:40:10;;;;;;;16.75;9.18;;;10.60;99.90;;;;;;5092414;28;20040;-64
2024/01/26 06:42:39;;;;;;;14.82;8.45;;;10.60;99.90;;;;;;5091947;28;20115;-63
2024/01/26 06:45:09;;;;;;;13.07;8.23;;;10.60;99.90;;;;;;5092746;28;20512;-63
2024/01/26 06:47:35;;;;;;;13.52;8.95;;;10.60;99.90;;;;;;5075406;28;20048;-63
2024/01/26 06:50:01;;;;;;;14.60;8.73;;;10.50;99.90;;;;;;5091848;28;20163;-63
2024/01/26 06:52:26;;;;;;;13.05;8.88;;;10.50;99.90;;;;;;5092039;28;20040;-63
2024/01/26 06:54:52;;;;;;;12.18;8.35;;;10.60;99.90;;;;;;5092806;28;20040;-63
2024/01/26 06:57:18;;;;;;;15.05;8.77;;;10.50;99.90;;;;;;5092572;28;20123;-62
2024/01/26 06:59:43;;;;;;;14.95;8.40;;;10.60;99.90;;;;;;5092220;28;20056;-63
2024/01/26 07:02:10;;;;;;;14.90;8.70;;;10.50;99.90;;;;;;5093235;28;20095;-62
2024/01/26 07:04:35;;;;;;;13.98;8.73;;;10.50;99.90;;;;;;5091008;28;20036;-63
2024/01/26 07:07:01;;;;;;;14.98;8.38;;;10.50;99.90;;;;;;5092160;28;20048;-63
2024/01/26 07:09:27;;;;;;;15.82;8.95;;;10.40;99.90;;;;;;5074826;28;20070;-63
2024/01/26 07:11:52;;;;;;;12.95;8.93;;;10.40;99.90;;;;;;5090638;28;20036;-63
2024/01/26 07:14:19;;;;;;;12.40;8.13;;;10.40;99.90;;;;;;5091749;28;20032;-63
2024/01/26 07:16:46;;;;;;;13.63;9.25;;;10.50;99.90;;;;;;5091735;28;20074;-62
2024/01/26 07:19:12;;;;;;;13.38;8.95;;;10.50;99.90;;;;;;5090474;28;20553;-63
2024/01/26 07:21:37;;;;;;;14.35;9.32;;;10.40;99.90;;;;;;5092723;28;20031;-63
2024/01/26 07:24:03;;;;;;;14.20;9.32;;;10.30;99.90;;;;;;5074780;28;20166;-63
2024/01/26 07:26:29;;;;;;;14.75;9.27;;;10.30;99.90;;;;;;5073644;28;20051;-63
2024/01/26 07:28:54;;;;;;;11.40;7.95;;;10.40;99.90;;;;;;5091355;28;20040;-63
2024/01/26 07:31:20;;;;;;;12.27;8.13;;;10.30;99.90;;;;;;5091096;28;20048;-63
2024/01/26 07:33:46;;;;;;;14.32;8.55;;;10.30;99.90;;;;;;5073834;28;20044;-63
2024/01/26 07:36:12;;;;;;;14.82;8.07;;;10.30;99.90;;;;;;5107783;28;20051;-63
2024/01/26 07:38:37;;;;;;;13.45;9.13;;;10.20;99.90;;;;;;5091267;28;20039;-63
2024/01/26 07:41:03;;;;;;;13.98;8.63;;;10.20;99.90;;;;;;5090736;28;20404;-63
2024/01/26 07:43:29;;;;;;;15.15;9.48;;;10.20;99.90;;;;;;5091241;28;20036;-63
2024/01/26 07:45:54;;;;;;;13.05;8.55;;;10.10;99.90;;;;;;5091424;28;20044;-63
2024/01/26 07:48:20;;;;;;;12.50;6.32;;;10.20;99.90;;;;;;5092028;28;20441;-63
2024/01/26 07:50:46;;;;;;;10.45;5.95;;;10.20;99.90;;;;;;5091048;28;20048;-63
2024/01/26 07:53:12;;;;;;;11.32;6.88;;;10.10;99.90;;;;;;5091824;28;20071;-63
2024/01/26 07:55:38;;;;;;;11.63;6.90;;;10.10;99.90;;;;;;5073886;28;20070;-63
2024/01/26 07:58:03;;;;;;;12.10;6.97;;;10.30;99.90;;;;;;5091350;28;20114;-63
2024/01/26 08:00:29;;;;;;;13.15;7.65;;;10.20;99.90;;;;;;5089472;28;20067;-63
2024/01/26 08:02:55;;;;;;;12.30;7.13;;;10.20;99.90;;;;;;5084827;28;20044;-62
2024/01/26 08:05:20;;;;;;;11.70;7.47;;;10.30;99.90;;;;;;5090857;28;20405;-62
2024/01/26 08:07:51;;;;;;;11.63;6.07;;;10.30;99.90;;;;;;5090310;28;20491;-63
2024/01/26 08:10:17;;;;;;;12.10;5.90;;;10.30;99.90;;;;;;5090939;28;20119;-63
2024/01/26 08:12:45;;;;;;;10.95;5.28;;;10.30;99.90;;;;;;5090469;28;20115;-63
2024/01/26 08:15:11;;;;;;;11.82;4.90;;;10.30;99.90;;;;;;5089896;28;20043;-63
2024/01/26 08:17:37;;;;;;;9.63;5.00;;;10.40;99.90;;;;;;5090253;28;20115;-63
2024/01/26 08:20:03;;;;;;;10.15;4.50;;;10.40;99.90;;;;;;5091187;28;20048;-63
2024/01/26 08:22:30;;;;;;;10.82;5.13;;;10.30;99.90;;;;;;5089474;28;20056;-64
2024/01/26 08:24:58;;;;;;;10.43;4.75;;;10.40;99.90;;;;;;5089656;28;20059;-63
2024/01/26 08:27:25;;;;;;;11.90;4.70;;;10.50;99.90;;;;;;5089950;28;20048;-63
2024/01/26 08:29:51;;;;;;;14.68;5.45;;;10.50;99.90;;;;;;5090040;28;20036;-63
2024/01/26 08:32:16;;;;;;;15.40;4.20;;;10.30;99.90;;;;;;5090533;28;20123;-64
2024/01/26 08:34:42;;;;;;;13.95;4.28;;;10.40;99.90;;;;;;5091508;28;20118;-63
2024/01/26 08:37:08;;;;;;;13.13;4.93;;;10.30;99.90;;;;;;5090018;28;20047;-63
2024/01/26 08:39:34;;;;;;;11.95;4.30;;;10.40;99.90;;;;;;5090669;28;20044;-63
2024/01/26 08:42:00;;;;;;;11.05;4.07;;;10.40;99.90;;;;;;5090541;28;20488;-63
2024/01/26 08:44:26;;;;;;;16.70;4.28;;;10.40;99.90;;;;;;5106486;28;20040;-64
2024/01/26 08:46:51;;;;;;;9.05;4.20;;;10.50;99.90;;;;;;5091958;28;20036;-64
2024/01/26 08:49:17;;;;;;;17.95;3.72;;;10.50;99.90;;;;;;5089161;28;20037;-63
2024/01/26 08:51:43;;;;;;;12.13;3.67;;;10.40;99.90;;;;;;5090452;28;20043;-63
2024/01/26 08:54:10;;;;;;;12.32;3.42;;;10.60;99.90;;;;;;5091339;28;20489;-62
2024/01/26 08:56:45;;;;;;;10.85;3.03;;;10.50;99.90;;;;;;5091018;28;20291;-63
2024/01/26 08:59:11;;;;;;;8.02;1.92;;;10.30;99.90;;;;;;5090311;28;20044;-62
2024/01/26 09:01:38;;;;;;;7.10;1.80;;;10.00;99.90;;;;;;5091055;28;20044;-62
2024/01/26 09:04:08;;;;;;;5.97;1.80;;;9.70;99.90;;;;;;5089351;28;20092;-62
2024/01/26 09:06:34;;;;;;;7.13;1.67;;;9.50;99.90;;;;;;5110681;28;20381;-63
2024/01/26 09:09:01;;;;;;;8.25;2.30;;;9.40;99.90;;;;;;5086770;28;20044;-62
2024/01/26 09:11:26;;;;;;;7.53;1.80;;;9.30;99.90;;;;;;5072808;28;20389;-63
2024/01/26 09:13:52;;;;;;;9.63;1.70;;;9.30;99.90;;;;;;5092022;28;20040;-63
2024/01/26 09:16:18;;;;;;;10.73;2.10;;;9.20;99.90;;;;;;5084547;28;20037;-62
2024/01/26 09:18:43;;;;;;;9.77;1.70;;;9.20;99.90;;;;;;5068544;28;20133;-62
2024/01/26 09:21:12;;;;;;;8.18;2.67;;;9.20;99.90;;;;;;5067618;28;20449;-62
2024/01/26 09:23:39;;;;;;;7.50;2.05;;;9.10;99.90;;;;;;5067357;28;20550;-62
2024/01/26 09:26:04;;;;;;;11.82;2.80;;;9.10;99.90;;;;;;5069056;28;20052;-63
2024/01/26 09:28:30;;;;;;;12.73;3.80;;;9.00;99.90;;;;;;5103981;28;20507;-63
2024/01/26 09:30:56;;;;;;;8.10;3.15;;;9.00;99.90;;;;;;5087532;28;20048;-63
2024/01/26 09:33:22;;;;;;;11.18;3.17;;;8.90;99.90;;;;;;5086464;28;20051;-63
2024/01/26 09:35:48;;;;;;;9.98;2.20;;;8.90;99.90;;;;;;5089879;28;20044;-63
2024/01/26 09:38:14;;;;;;;13.98;3.25;;;8.90;99.90;;;;;;5090439;28;20051;-63
2024/01/26 09:40:40;;;;;;;13.23;3.90;;;8.80;99.90;;;;;;5089807;28;20374;-63
2024/01/26 09:43:07;;;;;;;11.40;3.35;;;8.80;99.90;;;;;;5090988;28;20048;-63
2024/01/26 09:45:33;;;;;;;14.98;3.20;;;8.80;99.90;;;;;;5106840;28;20051;-62
2024/01/26 09:47:59;;;;;;;7.47;2.60;;;8.80;99.90;;;;;;5092554;28;20696;-63
2024/01/26 09:50:26;;;;;;;15.07;4.63;;;8.80;99.90;;;;;;5090308;28;20421;-63
2024/01/26 09:52:52;;;;;;;23.05;4.32;;;8.80;99.90;;;;;;5089493;28;20143;-63
2024/01/26 09:55:20;;;;;;;17.88;4.10;;;8.70;99.90;;;;;;5091595;28;20401;-63
2024/01/26 09:57:47;;;;;;;13.07;3.22;;;8.70;99.90;;;;;;5090671;28;20154;-62
2024/01/26 10:00:14;;;;;;;10.70;2.97;;;8.70;99.90;;;;;;5089991;28;20056;-63
2024/01/26 10:02:43;;;;;;;9.50;3.28;;;8.70;99.90;;;;;;5090052;28;20087;-63
2024/01/26 10:05:10;;;;;;;12.05;3.00;;;8.60;99.90;;;;;;5089453;28;20062;-63
2024/01/26 10:07:37;;;;;;;14.63;3.45;;;8.60;99.90;;;;;;5089863;28;20148;-63
2024/01/26 10:10:04;;;;;;;13.95;3.20;;;8.60;99.90;;;;;;5090544;28;20853;-63
2024/01/26 10:12:30;;;;;;;12.65;2.95;;;8.60;99.90;;;;;;5089588;28;20524;-63
2024/01/26 10:15:03;;;;;;;19.42;3.70;;;8.60;99.90;;;;;;5091500;28;20044;-63
2024/01/26 10:17:30;;;;;;;12.80;3.28;;;8.60;99.90;;;;;;5089847;28;20097;-63
2024/01/26 10:20:15;;;;;;;15.93;4.78;;;8.70;99.90;;;;;;5090880;28;20431;-63
2024/01/26 10:22:45;;;;;;;12.05;3.58;;;8.60;99.90;;;;;;5089477;28;20106;-64
2024/01/26 10:25:11;;;;;;;9.68;2.85;;;8.70;99.90;;;;;;5090091;28;20048;-63
2024/01/26 10:27:37;;;;;;;13.88;3.50;;;8.60;99.90;;;;;;5091480;28;20477;-63
2024/01/26 10:30:04;;;;;;;13.13;3.42;;;8.70;99.90;;;;;;5107054;28;20044;-63
2024/01/26 10:32:32;;;;;;;15.35;4.18;;;8.70;99.90;;;;;;5106803;28;20927;-63
2024/01/26 10:35:03;;;;;;;20.90;3.65;;;8.60;99.90;;;;;;5089992;28;20051;-63
2024/01/26 10:37:34;;;;;;;17.88;3.90;;;8.60;99.90;;;;;;5085927;28;20619;-63
2024/01/26 10:40:01;;;;;;;17.23;3.35;;;8.70;99.90;;;;;;5090036;28;20048;-63
2024/01/26 10:42:31;;;;;;;9.18;2.60;;;8.60;99.90;;;;;;5089749;28;20534;-63
2024/01/26 10:45:00;;;;;;;12.20;2.92;;;8.60;99.90;;;;;;5073130;28;20044;-64
2024/01/26 10:47:26;;;;;;;12.75;3.00;;;8.60;99.90;;;;;;5089311;28;20051;-63
2024/01/26 10:49:55;;;;;;;9.65;2.53;;;8.60;99.90;;;;;;5089287;28;20484;-63
2024/01/26 10:52:22;;;;;;;19.92;3.85;;;8.60;99.90;;;;;;5090003;28;20047;-63
2024/01/26 10:54:49;;;;;;;13.00;2.83;;;8.60;99.90;;;;;;5089671;28;20400;-63
2024/01/26 10:57:15;;;;;;;13.52;3.70;;;8.60;99.90;;;;;;5091958;28;20052;-63
2024/01/26 10:59:43;;;;;;;14.57;3.53;;;8.70;99.90;;;;;;5088656;28;20815;-63
2024/01/26 11:02:27;;;;;;;11.68;3.05;;;8.70;99.90;;;;;;5090615;28;20423;-63
2024/01/26 11:04:53;;;;;;;15.70;3.75;;;8.70;99.90;;;;;;5087313;28;20036;-63
2024/01/26 11:07:20;;;;;;;16.58;3.40;;;8.60;99.90;;;;;;5088792;28;20044;-63
2024/01/26 11:09:46;;;;;;;12.02;3.30;;;8.70;99.90;;;;;;5089046;28;20748;-63
2024/01/26 11:12:22;;;;;;;12.60;3.17;;;8.60;99.90;;;;;;5088547;28;20616;-63
2024/01/26 11:15:04;;;;;;;12.98;4.03;;;8.70;99.90;;;;;;5090669;28;20079;-63
2024/01/26 11:17:40;;;;;;;13.07;3.20;;;8.70;99.90;;;;;;5070778;28;20058;-63
2024/01/26 11:20:18;;;;;;;12.48;3.13;;;8.70;99.90;;;;;;5076821;28;20112;-63
2024/01/26 11:22:44;;;;;;;17.92;5.00;;;8.70;99.90;;;;;;5088435;28;20063;-63
2024/01/26 11:25:21;;;;;;;11.98;3.47;;;8.70;99.90;;;;;;5088278;28;20052;-63
2024/01/26 11:27:47;;;;;;;18.42;5.00;;;8.80;99.90;;;;;;5108026;28;20043;-64
2024/01/26 11:30:25;;;;;;;9.82;2.58;;;8.80;99.90;;;;;;5110635;28;20032;-63
2024/01/26 11:32:51;;;;;;;14.32;4.00;;;8.80;99.90;;;;;;5098176;28;20044;-63
2024/01/26 11:35:17;;;;;;;17.20;3.33;;;8.70;99.90;;;;;;5093069;28;20084;-62
2024/01/26 11:37:43;;;;;;;11.80;2.88;;;8.60;99.90;;;;;;5089292;28;20100;-62
2024/01/26 11:40:09;;;;;;;16.58;3.05;;;8.60;99.90;;;;;;5088122;28;20050;-62
2024/01/26 11:42:36;;;;;;;11.15;3.08;;;8.50;99.90;;;;;;5088615;28;20054;-63
2024/01/26 11:45:13;;;;;;;12.60;4.20;;;8.50;99.90;;;;;;5088523;28;20040;-63
2024/01/26 11:47:39;;;;;;;15.18;2.80;;;8.50;99.90;;;;;;5088542;28;20369;-62
2024/01/26 11:50:07;;;;;;;18.75;5.07;;;8.50;99.90;;;;;;5091464;28;20122;-63
2024/01/26 11:52:36;;;;;;;24.65;5.50;;;8.40;99.90;;;;;;5091885;28;20036;-62
2024/01/26 11:55:03;;;;;;;18.10;3.33;;;8.40;99.90;;;;;;5109489;28;20385;-62
2024/01/26 11:57:29;;;;;;;20.02;4.88;;;8.40;99.90;;;;;;5095462;28;20077;-62
2024/01/26 11:59:58;;;;;;;20.70;3.78;;;8.40;99.90;;;;;;5088145;28;20112;-63
2024/01/26 12:02:24;;;;;;;18.40;4.30;;;8.40;99.90;;;;;;5108523;28;20506;-62
2024/01/26 12:04:49;;;;;;;24.60;6.13;;;8.30;99.90;;;;;;5095719;28;20162;-63
2024/01/26 12:07:15;;;;;;;16.90;3.72;;;8.30;99.90;;;;;;5087607;28;20481;-63
2024/01/26 12:09:41;;;;;;;18.58;5.57;;;8.20;99.90;;;;;;5089976;28;20040;-63
2024/01/26 12:12:10;;;;;;;18.35;4.65;;;8.10;99.90;;;;;;5088055;28;20127;-63
2024/01/26 12:14:36;;;;;;;18.00;3.50;;;8.10;99.90;;;;;;5087502;28;20040;-63
2024/01/26 12:17:02;;;;;;;15.68;4.13;;;8.00;99.90;;;;;;5090449;28;20366;-62
2024/01/26 12:19:27;;;;;;;22.17;4.53;;;8.00;99.90;;;;;;5088740;28;20092;-63
2024/01/26 12:21:53;;;;;;;19.70;4.47;;;7.90;99.90;;;;;;5087947;28;20075;-62
2024/01/26 12:24:19;;;;;;;12.45;2.97;;;8.00;99.90;;;;;;5089670;28;20408;-62
2024/01/26 12:26:45;;;;;;;15.07;3.10;;;8.00;99.90;;;;;;5085540;28;20032;-62
2024/01/26 12:29:11;;;;;;;13.88;3.53;;;8.00;99.90;;;;;;5085941;28;20094;-62
2024/01/26 12:31:37;;;;;;;16.92;3.58;;;7.90;99.90;;;;;;5088511;28;20064;-63
2024/01/26 12:34:02;;;;;;;14.50;2.53;;;7.90;99.90;;;;;;5088473;28;20042;-62